sensor_id;sensor_type;location;lat;lon;timestamp;P1;durP1;ratioP1;P2;durP2;ratioP2
25721;SDS011;13578;53.450;15.496;2023-04-03T00:02:40;17.88;;;5.85;;
25721;SDS011;13578;53.450;15.496;2023-04-03T00:05:41;11.98;;;4.70;;
25721;SDS011;13578;53.450;15.496;2023-04-03T00:08:41;7.13;;;5.07;;
25721;SDS011;13578;53.450;15.496;2023-04-03T00:11:42;11.75;;;5.68;;
25721;SDS011;13578;53.450;15.496;2023-04-03T00:14:43;12.85;;;5.82;;
25721;SDS011;13578;53.450;15.496;2023-04-03T00:17:43;7.43;;;5.00;;
25721;SDS011;13578;53.450;15.496;2023-04-03T00:20:44;6.75;;;5.28;;
25721;SDS011;13578;53.450;15.496;2023-04-03T00:23:45;5.65;;;4.88;;
25721;SDS011;13578;53.450;15.496;2023-04-03T00:26:45;10.65;;;5.00;;
25721;SDS011;13578;53.450;15.496;2023-04-03T00:29:46;13.43;;;5.00;;
25721;SDS011;13578;53.450;15.496;2023-04-03T00:32:47;9.18;;;4.60;;
25721;SDS011;13578;53.450;15.496;2023-04-03T00:35:49;11.45;;;4.80;;
25721;SDS011;13578;53.450;15.496;2023-04-03T00:38:50;13.15;;;5.35;;
25721;SDS011;13578;53.450;15.496;2023-04-03T00:41:50;7.65;;;5.97;;
25721;SDS011;13578;53.450;15.496;2023-04-03T00:47:58;9.38;;;5.30;;
25721;SDS011;13578;53.450;15.496;2023-04-03T00:51:02;7.22;;;5.13;;
25721;SDS011;13578;53.450;15.496;2023-04-03T00:54:05;5.07;;;4.68;;
25721;SDS011;13578;53.450;15.496;2023-04-03T00:57:08;7.13;;;4.70;;
25721;SDS011;13578;53.450;15.496;2023-04-03T01:00:12;10.55;;;5.28;;
25721;SDS011;13578;53.450;15.496;2023-04-03T01:03:16;6.93;;;4.63;;
25721;SDS011;13578;53.450;15.496;2023-04-03T01:06:17;9.60;;;4.88;;
25721;SDS011;13578;53.450;15.496;2023-04-03T01:09:27;9.50;;;5.07;;
25721;SDS011;13578;53.450;15.496;2023-04-03T01:12:30;6.65;;;5.38;;
25721;SDS011;13578;53.450;15.496;2023-04-03T01:15:33;7.03;;;4.93;;
25721;SDS011;13578;53.450;15.496;2023-04-03T01:18:36;12.18;;;5.85;;
25721;SDS011;13578;53.450;15.496;2023-04-03T01:21:49;7.47;;;4.75;;
25721;SDS011;13578;53.450;15.496;2023-04-03T01:24:59;5.80;;;4.78;;
25721;SDS011;13578;53.450;15.496;2023-04-03T01:28:00;5.45;;;4.78;;
25721;SDS011;13578;53.450;15.496;2023-04-03T01:34:19;6.63;;;4.43;;
25721;SDS011;13578;53.450;15.496;2023-04-03T01:37:20;9.88;;;5.25;;
25721;SDS011;13578;53.450;15.496;2023-04-03T01:40:21;6.25;;;4.90;;
25721;SDS011;13578;53.450;15.496;2023-04-03T01:43:21;7.47;;;5.03;;
25721;SDS011;13578;53.450;15.496;2023-04-03T01:46:22;5.50;;;4.95;;
25721;SDS011;13578;53.450;15.496;2023-04-03T01:49:23;6.70;;;4.47;;
25721;SDS011;13578;53.450;15.496;2023-04-03T01:52:23;9.80;;;4.90;;
25721;SDS011;13578;53.450;15.496;2023-04-03T01:55:24;8.85;;;5.55;;
25721;SDS011;13578;53.450;15.496;2023-04-03T01:58:25;9.38;;;5.28;;
25721;SDS011;13578;53.450;15.496;2023-04-03T02:01:25;5.43;;;4.80;;
25721;SDS011;13578;53.450;15.496;2023-04-03T02:04:26;6.63;;;4.05;;
25721;SDS011;13578;53.450;15.496;2023-04-03T02:07:27;5.72;;;5.20;;
25721;SDS011;13578;53.450;15.496;2023-04-03T02:10:27;7.88;;;4.88;;
25721;SDS011;13578;53.450;15.496;2023-04-03T02:13:28;6.90;;;5.88;;
25721;SDS011;13578;53.450;15.496;2023-04-03T02:16:29;6.65;;;4.05;;
25721;SDS011;13578;53.450;15.496;2023-04-03T02:19:30;11.85;;;5.38;;
25721;SDS011;13578;53.450;15.496;2023-04-03T02:22:31;12.15;;;4.97;;
25721;SDS011;13578;53.450;15.496;2023-04-03T02:25:32;6.35;;;5.07;;
25721;SDS011;13578;53.450;15.496;2023-04-03T02:28:33;6.85;;;4.38;;
25721;SDS011;13578;53.450;15.496;2023-04-03T02:31:35;4.95;;;4.53;;
25721;SDS011;13578;53.450;15.496;2023-04-03T02:34:35;7.78;;;4.55;;
25721;SDS011;13578;53.450;15.496;2023-04-03T02:37:36;10.32;;;4.95;;
25721;SDS011;13578;53.450;15.496;2023-04-03T02:40:37;6.70;;;4.50;;
25721;SDS011;13578;53.450;15.496;2023-04-03T02:43:38;4.65;;;4.32;;
25721;SDS011;13578;53.450;15.496;2023-04-03T02:46:39;6.20;;;4.70;;
25721;SDS011;13578;53.450;15.496;2023-04-03T02:49:40;8.45;;;4.55;;
25721;SDS011;13578;53.450;15.496;2023-04-03T02:52:41;9.55;;;4.97;;
25721;SDS011;13578;53.450;15.496;2023-04-03T02:55:41;6.40;;;5.25;;
25721;SDS011;13578;53.450;15.496;2023-04-03T02:58:42;5.60;;;4.68;;
25721;SDS011;13578;53.450;15.496;2023-04-03T03:01:43;5.47;;;4.68;;
25721;SDS011;13578;53.450;15.496;2023-04-03T03:04:44;5.57;;;4.88;;
25721;SDS011;13578;53.450;15.496;2023-04-03T03:07:44;6.88;;;4.72;;
25721;SDS011;13578;53.450;15.496;2023-04-03T03:10:45;8.07;;;4.93;;
25721;SDS011;13578;53.450;15.496;2023-04-03T03:13:46;5.07;;;4.78;;
25721;SDS011;13578;53.450;15.496;2023-04-03T03:16:46;8.68;;;6.03;;
25721;SDS011;13578;53.450;15.496;2023-04-03T03:19:47;12.27;;;5.38;;
25721;SDS011;13578;53.450;15.496;2023-04-03T03:22:48;5.63;;;4.60;;
25721;SDS011;13578;53.450;15.496;2023-04-03T03:25:48;5.18;;;4.68;;
25721;SDS011;13578;53.450;15.496;2023-04-03T03:28:49;9.50;;;4.38;;
25721;SDS011;13578;53.450;15.496;2023-04-03T03:31:50;5.95;;;4.65;;
25721;SDS011;13578;53.450;15.496;2023-04-03T03:34:50;8.45;;;5.15;;
25721;SDS011;13578;53.450;15.496;2023-04-03T03:37:51;4.60;;;4.25;;
25721;SDS011;13578;53.450;15.496;2023-04-03T03:40:52;7.78;;;5.28;;
25721;SDS011;13578;53.450;15.496;2023-04-03T03:43:52;12.90;;;5.47;;
25721;SDS011;13578;53.450;15.496;2023-04-03T03:46:53;9.27;;;4.82;;
25721;SDS011;13578;53.450;15.496;2023-04-03T03:49:54;6.88;;;4.55;;
25721;SDS011;13578;53.450;15.496;2023-04-03T03:52:54;8.88;;;5.60;;
25721;SDS011;13578;53.450;15.496;2023-04-03T03:55:55;7.47;;;4.78;;
25721;SDS011;13578;53.450;15.496;2023-04-03T03:58:55;6.63;;;4.72;;
25721;SDS011;13578;53.450;15.496;2023-04-03T04:01:56;5.70;;;5.20;;
25721;SDS011;13578;53.450;15.496;2023-04-03T04:04:57;11.70;;;4.78;;
25721;SDS011;13578;53.450;15.496;2023-04-03T04:07:57;8.35;;;5.03;;
25721;SDS011;13578;53.450;15.496;2023-04-03T04:10:58;4.15;;;3.85;;
25721;SDS011;13578;53.450;15.496;2023-04-03T04:13:59;6.03;;;4.70;;
25721;SDS011;13578;53.450;15.496;2023-04-03T04:16:59;8.73;;;4.78;;
25721;SDS011;13578;53.450;15.496;2023-04-03T04:20:02;5.05;;;4.65;;
25721;SDS011;13578;53.450;15.496;2023-04-03T04:23:05;6.55;;;4.80;;
25721;SDS011;13578;53.450;15.496;2023-04-03T04:26:05;8.02;;;4.70;;
25721;SDS011;13578;53.450;15.496;2023-04-03T04:29:06;5.80;;;4.70;;
25721;SDS011;13578;53.450;15.496;2023-04-03T04:32:07;9.27;;;4.35;;
25721;SDS011;13578;53.450;15.496;2023-04-03T04:35:09;5.75;;;4.60;;
25721;SDS011;13578;53.450;15.496;2023-04-03T04:38:09;10.00;;;5.28;;
25721;SDS011;13578;53.450;15.496;2023-04-03T04:41:10;8.80;;;5.68;;
25721;SDS011;13578;53.450;15.496;2023-04-03T04:44:11;6.07;;;4.85;;
25721;SDS011;13578;53.450;15.496;2023-04-03T04:47:11;5.90;;;4.90;;
25721;SDS011;13578;53.450;15.496;2023-04-03T04:50:12;8.10;;;5.00;;
25721;SDS011;13578;53.450;15.496;2023-04-03T04:53:13;5.57;;;4.30;;
25721;SDS011;13578;53.450;15.496;2023-04-03T04:56:13;5.95;;;5.13;;
25721;SDS011;13578;53.450;15.496;2023-04-03T04:59:14;11.07;;;4.60;;
25721;SDS011;13578;53.450;15.496;2023-04-03T05:02:15;12.85;;;4.72;;
25721;SDS011;13578;53.450;15.496;2023-04-03T05:05:16;8.25;;;4.10;;
25721;SDS011;13578;53.450;15.496;2023-04-03T05:08:16;10.20;;;4.80;;
25721;SDS011;13578;53.450;15.496;2023-04-03T05:11:17;11.43;;;5.05;;
25721;SDS011;13578;53.450;15.496;2023-04-03T05:14:18;5.55;;;4.75;;
25721;SDS011;13578;53.450;15.496;2023-04-03T05:17:18;5.78;;;4.53;;
25721;SDS011;13578;53.450;15.496;2023-04-03T05:20:19;4.95;;;4.47;;
25721;SDS011;13578;53.450;15.496;2023-04-03T05:23:20;7.78;;;4.65;;
25721;SDS011;13578;53.450;15.496;2023-04-03T05:26:20;4.53;;;4.22;;
25721;SDS011;13578;53.450;15.496;2023-04-03T05:29:21;5.20;;;4.50;;
25721;SDS011;13578;53.450;15.496;2023-04-03T05:32:22;5.07;;;4.50;;
25721;SDS011;13578;53.450;15.496;2023-04-03T05:35:25;5.40;;;4.90;;
25721;SDS011;13578;53.450;15.496;2023-04-03T05:38:25;5.30;;;4.43;;
25721;SDS011;13578;53.450;15.496;2023-04-03T05:41:26;4.72;;;4.07;;
25721;SDS011;13578;53.450;15.496;2023-04-03T05:44:26;6.20;;;4.45;;
25721;SDS011;13578;53.450;15.496;2023-04-03T05:47:27;6.57;;;4.80;;
25721;SDS011;13578;53.450;15.496;2023-04-03T05:50:28;7.90;;;4.85;;
25721;SDS011;13578;53.450;15.496;2023-04-03T05:53:29;4.30;;;3.90;;
25721;SDS011;13578;53.450;15.496;2023-04-03T05:56:33;6.88;;;4.57;;
25721;SDS011;13578;53.450;15.496;2023-04-03T05:59:33;4.53;;;4.13;;
25721;SDS011;13578;53.450;15.496;2023-04-03T06:02:34;4.43;;;4.03;;
25721;SDS011;13578;53.450;15.496;2023-04-03T06:05:36;11.18;;;4.50;;
25721;SDS011;13578;53.450;15.496;2023-04-03T06:08:36;5.00;;;4.50;;
25721;SDS011;13578;53.450;15.496;2023-04-03T06:11:38;5.85;;;4.00;;
25721;SDS011;13578;53.450;15.496;2023-04-03T06:14:39;4.65;;;4.20;;
25721;SDS011;13578;53.450;15.496;2023-04-03T06:17:40;5.50;;;3.63;;
25721;SDS011;13578;53.450;15.496;2023-04-03T06:20:40;6.03;;;4.25;;
25721;SDS011;13578;53.450;15.496;2023-04-03T06:23:41;8.38;;;4.25;;
25721;SDS011;13578;53.450;15.496;2023-04-03T06:26:42;5.43;;;4.43;;
25721;SDS011;13578;53.450;15.496;2023-04-03T06:29:42;4.45;;;4.05;;
25721;SDS011;13578;53.450;15.496;2023-04-03T06:32:45;5.15;;;4.65;;
25721;SDS011;13578;53.450;15.496;2023-04-03T06:35:45;12.57;;;4.45;;
25721;SDS011;13578;53.450;15.496;2023-04-03T06:38:46;5.00;;;4.57;;
25721;SDS011;13578;53.450;15.496;2023-04-03T06:41:48;5.45;;;4.25;;
25721;SDS011;13578;53.450;15.496;2023-04-03T06:44:49;8.82;;;4.80;;
25721;SDS011;13578;53.450;15.496;2023-04-03T06:47:50;13.27;;;4.85;;
25721;SDS011;13578;53.450;15.496;2023-04-03T06:50:50;9.00;;;4.95;;
25721;SDS011;13578;53.450;15.496;2023-04-03T06:53:51;5.28;;;4.43;;
25721;SDS011;13578;53.450;15.496;2023-04-03T06:56:54;5.28;;;4.07;;
25721;SDS011;13578;53.450;15.496;2023-04-03T06:59:54;5.20;;;4.70;;
25721;SDS011;13578;53.450;15.496;2023-04-03T07:02:55;4.13;;;3.78;;
25721;SDS011;13578;53.450;15.496;2023-04-03T07:05:57;5.35;;;4.57;;
25721;SDS011;13578;53.450;15.496;2023-04-03T07:08:58;8.52;;;4.53;;
25721;SDS011;13578;53.450;15.496;2023-04-03T07:11:58;5.68;;;4.80;;
25721;SDS011;13578;53.450;15.496;2023-04-03T07:14:59;5.13;;;4.63;;
25721;SDS011;13578;53.450;15.496;2023-04-03T07:18:00;9.13;;;4.25;;
25721;SDS011;13578;53.450;15.496;2023-04-03T07:21:00;4.57;;;4.28;;
25721;SDS011;13578;53.450;15.496;2023-04-03T07:24:02;10.40;;;4.82;;
25721;SDS011;13578;53.450;15.496;2023-04-03T07:27:02;10.48;;;3.70;;
25721;SDS011;13578;53.450;15.496;2023-04-03T07:30:03;4.30;;;3.88;;
25721;SDS011;13578;53.450;15.496;2023-04-03T07:33:04;5.03;;;4.35;;
25721;SDS011;13578;53.450;15.496;2023-04-03T07:36:05;5.38;;;4.00;;
25721;SDS011;13578;53.450;15.496;2023-04-03T07:39:07;8.55;;;4.28;;
25721;SDS011;13578;53.450;15.496;2023-04-03T07:42:08;7.78;;;3.63;;
25721;SDS011;13578;53.450;15.496;2023-04-03T07:45:08;6.40;;;4.20;;
25721;SDS011;13578;53.450;15.496;2023-04-03T07:48:10;3.70;;;3.50;;
25721;SDS011;13578;53.450;15.496;2023-04-03T07:51:11;4.38;;;3.97;;
25721;SDS011;13578;53.450;15.496;2023-04-03T07:54:12;5.05;;;4.20;;
25721;SDS011;13578;53.450;15.496;2023-04-03T07:57:13;4.45;;;3.92;;
25721;SDS011;13578;53.450;15.496;2023-04-03T08:00:14;6.93;;;4.55;;
25721;SDS011;13578;53.450;15.496;2023-04-03T08:03:17;5.90;;;4.45;;
25721;SDS011;13578;53.450;15.496;2023-04-03T08:06:18;5.20;;;4.47;;
25721;SDS011;13578;53.450;15.496;2023-04-03T08:09:19;6.00;;;3.85;;
25721;SDS011;13578;53.450;15.496;2023-04-03T08:12:19;4.75;;;4.30;;
25721;SDS011;13578;53.450;15.496;2023-04-03T08:15:20;5.00;;;4.60;;
25721;SDS011;13578;53.450;15.496;2023-04-03T08:18:21;9.55;;;4.57;;
25721;SDS011;13578;53.450;15.496;2023-04-03T08:21:24;4.40;;;3.75;;
25721;SDS011;13578;53.450;15.496;2023-04-03T08:24:26;6.40;;;3.97;;
25721;SDS011;13578;53.450;15.496;2023-04-03T08:27:26;6.55;;;3.83;;
25721;SDS011;13578;53.450;15.496;2023-04-03T08:30:28;4.53;;;3.58;;
25721;SDS011;13578;53.450;15.496;2023-04-03T08:33:29;6.35;;;3.63;;
25721;SDS011;13578;53.450;15.496;2023-04-03T08:36:29;5.40;;;3.63;;
25721;SDS011;13578;53.450;15.496;2023-04-03T08:39:30;7.43;;;4.38;;
25721;SDS011;13578;53.450;15.496;2023-04-03T08:45:55;8.82;;;3.80;;
25721;SDS011;13578;53.450;15.496;2023-04-03T08:48:57;4.13;;;3.67;;
25721;SDS011;13578;53.450;15.496;2023-04-03T08:52:01;6.30;;;3.80;;
25721;SDS011;13578;53.450;15.496;2023-04-03T08:58:45;6.00;;;4.18;;
25721;SDS011;13578;53.450;15.496;2023-04-03T09:01:49;5.05;;;3.83;;
25721;SDS011;13578;53.450;15.496;2023-04-03T09:04:51;4.30;;;3.92;;
25721;SDS011;13578;53.450;15.496;2023-04-03T09:07:57;6.43;;;3.40;;
25721;SDS011;13578;53.450;15.496;2023-04-03T09:24:24;4.53;;;3.58;;
25721;SDS011;13578;53.450;15.496;2023-04-03T09:27:26;7.32;;;4.30;;
25721;SDS011;13578;53.450;15.496;2023-04-03T09:30:28;7.63;;;4.30;;
25721;SDS011;13578;53.450;15.496;2023-04-03T09:33:29;4.88;;;3.53;;
25721;SDS011;13578;53.450;15.496;2023-04-03T09:39:49;4.40;;;3.73;;
25721;SDS011;13578;53.450;15.496;2023-04-03T09:42:52;6.47;;;4.07;;
25721;SDS011;13578;53.450;15.496;2023-04-03T09:45:55;8.18;;;4.15;;
25721;SDS011;13578;53.450;15.496;2023-04-03T09:49:16;6.05;;;3.72;;
25721;SDS011;13578;53.450;15.496;2023-04-03T09:52:18;4.35;;;3.35;;
25721;SDS011;13578;53.450;15.496;2023-04-03T09:55:23;5.25;;;3.03;;
25721;SDS011;13578;53.450;15.496;2023-04-03T09:58:30;10.07;;;3.33;;
25721;SDS011;13578;53.450;15.496;2023-04-03T10:01:34;4.57;;;3.22;;
25721;SDS011;13578;53.450;15.496;2023-04-03T10:04:38;3.53;;;3.22;;
25721;SDS011;13578;53.450;15.496;2023-04-03T10:07:40;3.70;;;3.15;;
25721;SDS011;13578;53.450;15.496;2023-04-03T10:10:47;6.10;;;3.38;;
25721;SDS011;13578;53.450;15.496;2023-04-03T10:14:04;7.85;;;3.10;;
25721;SDS011;13578;53.450;15.496;2023-04-03T10:23:42;7.07;;;2.80;;
25721;SDS011;13578;53.450;15.496;2023-04-03T10:27:03;8.25;;;3.47;;
25721;SDS011;13578;53.450;15.496;2023-04-03T10:33:33;7.00;;;3.47;;
25721;SDS011;13578;53.450;15.496;2023-04-03T10:47:02;3.35;;;3.00;;
25721;SDS011;13578;53.450;15.496;2023-04-03T10:56:47;2.70;;;2.50;;
25721;SDS011;13578;53.450;15.496;2023-04-03T10:59:55;3.47;;;3.13;;
25721;SDS011;13578;53.450;15.496;2023-04-03T11:03:00;5.88;;;2.90;;
25721;SDS011;13578;53.450;15.496;2023-04-03T11:06:07;3.25;;;2.88;;
25721;SDS011;13578;53.450;15.496;2023-04-03T11:12:33;3.20;;;2.63;;
25721;SDS011;13578;53.450;15.496;2023-04-03T11:15:41;3.10;;;2.90;;
25721;SDS011;13578;53.450;15.496;2023-04-03T11:18:49;3.35;;;3.05;;
25721;SDS011;13578;53.450;15.496;2023-04-03T11:21:56;3.75;;;3.45;;
25721;SDS011;13578;53.450;15.496;2023-04-03T11:28:13;6.03;;;3.47;;
25721;SDS011;13578;53.450;15.496;2023-04-03T11:31:30;4.18;;;3.30;;
25721;SDS011;13578;53.450;15.496;2023-04-03T11:34:42;8.07;;;3.58;;
25721;SDS011;13578;53.450;15.496;2023-04-03T11:37:50;6.45;;;3.42;;
25721;SDS011;13578;53.450;15.496;2023-04-03T11:40:53;3.45;;;3.15;;
25721;SDS011;13578;53.450;15.496;2023-04-03T11:47:01;6.18;;;3.67;;
25721;SDS011;13578;53.450;15.496;2023-04-03T11:50:03;8.13;;;3.30;;
25721;SDS011;13578;53.450;15.496;2023-04-03T11:59:36;4.72;;;2.97;;
25721;SDS011;13578;53.450;15.496;2023-04-03T12:02:37;7.35;;;3.83;;
25721;SDS011;13578;53.450;15.496;2023-04-03T12:05:38;3.75;;;3.10;;
25721;SDS011;13578;53.450;15.496;2023-04-03T12:11:39;6.45;;;3.83;;
25721;SDS011;13578;53.450;15.496;2023-04-03T12:14:40;4.63;;;3.53;;
25721;SDS011;13578;53.450;15.496;2023-04-03T12:17:41;5.50;;;2.95;;
25721;SDS011;13578;53.450;15.496;2023-04-03T12:21:00;3.13;;;2.92;;
25721;SDS011;13578;53.450;15.496;2023-04-03T12:27:04;5.20;;;2.78;;
25721;SDS011;13578;53.450;15.496;2023-04-03T12:30:25;5.07;;;3.17;;
25721;SDS011;13578;53.450;15.496;2023-04-03T12:33:31;5.03;;;3.10;;
25721;SDS011;13578;53.450;15.496;2023-04-03T12:36:55;4.65;;;3.25;;
25721;SDS011;13578;53.450;15.496;2023-04-03T12:46:51;3.28;;;2.85;;
25721;SDS011;13578;53.450;15.496;2023-04-03T12:49:53;5.68;;;3.20;;
25721;SDS011;13578;53.450;15.496;2023-04-03T12:53:05;4.53;;;3.15;;
25721;SDS011;13578;53.450;15.496;2023-04-03T12:56:19;7.63;;;2.88;;
25721;SDS011;13578;53.450;15.496;2023-04-03T12:59:22;3.05;;;2.75;;
25721;SDS011;13578;53.450;15.496;2023-04-03T13:05:31;3.13;;;2.80;;
25721;SDS011;13578;53.450;15.496;2023-04-03T13:08:33;3.53;;;2.85;;
25721;SDS011;13578;53.450;15.496;2023-04-03T13:11:34;3.35;;;3.05;;
25721;SDS011;13578;53.450;15.496;2023-04-03T13:14:38;5.72;;;2.72;;
25721;SDS011;13578;53.450;15.496;2023-04-03T13:17:44;7.72;;;3.70;;
25721;SDS011;13578;53.450;15.496;2023-04-03T13:20:45;2.95;;;2.75;;
25721;SDS011;13578;53.450;15.496;2023-04-03T13:23:50;3.28;;;2.90;;
25721;SDS011;13578;53.450;15.496;2023-04-03T13:26:52;2.92;;;2.72;;
25721;SDS011;13578;53.450;15.496;2023-04-03T13:29:53;3.15;;;2.95;;
25721;SDS011;13578;53.450;15.496;2023-04-03T13:32:58;3.38;;;2.70;;
25721;SDS011;13578;53.450;15.496;2023-04-03T13:36:04;5.63;;;2.88;;
25721;SDS011;13578;53.450;15.496;2023-04-03T13:42:21;3.65;;;2.78;;
25721;SDS011;13578;53.450;15.496;2023-04-03T13:45:29;5.70;;;3.42;;
25721;SDS011;13578;53.450;15.496;2023-04-03T13:48:35;3.50;;;3.20;;
25721;SDS011;13578;53.450;15.496;2023-04-03T13:51:43;4.43;;;3.20;;
25721;SDS011;13578;53.450;15.496;2023-04-03T13:54:45;4.95;;;3.17;;
25721;SDS011;13578;53.450;15.496;2023-04-03T13:57:56;3.60;;;3.22;;
25721;SDS011;13578;53.450;15.496;2023-04-03T14:01:16;2.30;;;2.13;;
25721;SDS011;13578;53.450;15.496;2023-04-03T14:04:27;6.47;;;3.28;;
25721;SDS011;13578;53.450;15.496;2023-04-03T14:07:30;3.75;;;3.03;;
25721;SDS011;13578;53.450;15.496;2023-04-03T14:10:33;3.30;;;3.10;;
25721;SDS011;13578;53.450;15.496;2023-04-03T14:13:34;4.72;;;2.90;;
25721;SDS011;13578;53.450;15.496;2023-04-03T14:16:37;3.97;;;3.08;;
25721;SDS011;13578;53.450;15.496;2023-04-03T14:19:39;5.57;;;2.95;;
25721;SDS011;13578;53.450;15.496;2023-04-03T14:22:40;4.45;;;3.35;;
25721;SDS011;13578;53.450;15.496;2023-04-03T14:25:41;7.95;;;3.55;;
25721;SDS011;13578;53.450;15.496;2023-04-03T14:28:42;2.95;;;2.75;;
25721;SDS011;13578;53.450;15.496;2023-04-03T14:31:44;4.93;;;2.78;;
25721;SDS011;13578;53.450;15.496;2023-04-03T14:34:46;6.85;;;3.33;;
25721;SDS011;13578;53.450;15.496;2023-04-03T14:37:48;5.60;;;3.60;;
25721;SDS011;13578;53.450;15.496;2023-04-03T14:40:50;7.15;;;2.75;;
25721;SDS011;13578;53.450;15.496;2023-04-03T14:43:52;5.18;;;3.60;;
25721;SDS011;13578;53.450;15.496;2023-04-03T14:46:53;4.07;;;3.25;;
25721;SDS011;13578;53.450;15.496;2023-04-03T14:49:54;8.15;;;3.60;;
25721;SDS011;13578;53.450;15.496;2023-04-03T14:52:56;10.00;;;3.38;;
25721;SDS011;13578;53.450;15.496;2023-04-03T14:55:58;3.13;;;2.78;;
25721;SDS011;13578;53.450;15.496;2023-04-03T14:59:00;4.03;;;3.15;;
25721;SDS011;13578;53.450;15.496;2023-04-03T15:02:01;3.88;;;3.47;;
25721;SDS011;13578;53.450;15.496;2023-04-03T15:05:03;4.00;;;3.13;;
25721;SDS011;13578;53.450;15.496;2023-04-03T15:08:08;2.83;;;2.63;;
25721;SDS011;13578;53.450;15.496;2023-04-03T15:11:21;4.45;;;3.35;;
25721;SDS011;13578;53.450;15.496;2023-04-03T15:14:22;4.00;;;3.60;;
25721;SDS011;13578;53.450;15.496;2023-04-03T15:17:23;5.88;;;3.58;;
25721;SDS011;13578;53.450;15.496;2023-04-03T15:20:25;4.28;;;3.25;;
25721;SDS011;13578;53.450;15.496;2023-04-03T15:23:26;6.30;;;3.72;;
25721;SDS011;13578;53.450;15.496;2023-04-03T15:26:28;3.58;;;3.28;;
25721;SDS011;13578;53.450;15.496;2023-04-03T15:29:29;5.93;;;3.45;;
25721;SDS011;13578;53.450;15.496;2023-04-03T15:32:30;8.35;;;3.80;;
25721;SDS011;13578;53.450;15.496;2023-04-03T15:35:31;4.72;;;3.83;;
25721;SDS011;13578;53.450;15.496;2023-04-03T15:38:32;3.90;;;3.60;;
25721;SDS011;13578;53.450;15.496;2023-04-03T15:41:33;6.15;;;4.05;;
25721;SDS011;13578;53.450;15.496;2023-04-03T15:44:34;5.78;;;3.60;;
25721;SDS011;13578;53.450;15.496;2023-04-03T15:47:35;4.95;;;3.47;;
25721;SDS011;13578;53.450;15.496;2023-04-03T15:50:36;7.68;;;3.80;;
25721;SDS011;13578;53.450;15.496;2023-04-03T15:53:37;5.03;;;4.05;;
25721;SDS011;13578;53.450;15.496;2023-04-03T15:56:38;5.78;;;4.20;;
25721;SDS011;13578;53.450;15.496;2023-04-03T15:59:39;6.60;;;4.43;;
25721;SDS011;13578;53.450;15.496;2023-04-03T16:02:40;6.07;;;4.30;;
25721;SDS011;13578;53.450;15.496;2023-04-03T16:05:42;6.93;;;3.60;;
25721;SDS011;13578;53.450;15.496;2023-04-03T16:08:43;11.02;;;3.90;;
25721;SDS011;13578;53.450;15.496;2023-04-03T16:11:44;10.68;;;3.97;;
25721;SDS011;13578;53.450;15.496;2023-04-03T16:14:45;8.80;;;4.05;;
25721;SDS011;13578;53.450;15.496;2023-04-03T16:17:45;3.97;;;3.40;;
25721;SDS011;13578;53.450;15.496;2023-04-03T16:20:48;4.43;;;3.47;;
25721;SDS011;13578;53.450;15.496;2023-04-03T16:23:48;3.25;;;3.03;;
25721;SDS011;13578;53.450;15.496;2023-04-03T16:26:49;5.85;;;3.90;;
25721;SDS011;13578;53.450;15.496;2023-04-03T16:29:50;4.50;;;4.10;;
25721;SDS011;13578;53.450;15.496;2023-04-03T16:32:51;8.93;;;3.58;;
25721;SDS011;13578;53.450;15.496;2023-04-03T16:35:51;6.50;;;3.55;;
25721;SDS011;13578;53.450;15.496;2023-04-03T16:38:52;5.80;;;4.15;;
25721;SDS011;13578;53.450;15.496;2023-04-03T16:41:53;4.57;;;3.75;;
25721;SDS011;13578;53.450;15.496;2023-04-03T16:44:53;5.47;;;3.95;;
25721;SDS011;13578;53.450;15.496;2023-04-03T16:47:54;4.15;;;3.75;;
25721;SDS011;13578;53.450;15.496;2023-04-03T16:50:55;7.63;;;4.30;;
25721;SDS011;13578;53.450;15.496;2023-04-03T16:53:55;3.67;;;3.08;;
25721;SDS011;13578;53.450;15.496;2023-04-03T16:56:56;5.00;;;3.50;;
25721;SDS011;13578;53.450;15.496;2023-04-03T17:00:00;5.55;;;3.88;;
25721;SDS011;13578;53.450;15.496;2023-04-03T17:03:01;7.90;;;3.97;;
25721;SDS011;13578;53.450;15.496;2023-04-03T17:06:02;4.05;;;3.60;;
25721;SDS011;13578;53.450;15.496;2023-04-03T17:09:03;7.38;;;4.18;;
25721;SDS011;13578;53.450;15.496;2023-04-03T17:12:03;9.57;;;3.83;;
25721;SDS011;13578;53.450;15.496;2023-04-03T17:15:04;6.85;;;3.88;;
25721;SDS011;13578;53.450;15.496;2023-04-03T17:18:06;3.72;;;3.30;;
25721;SDS011;13578;53.450;15.496;2023-04-03T17:21:07;5.05;;;3.88;;
25721;SDS011;13578;53.450;15.496;2023-04-03T17:24:08;8.32;;;3.90;;
25721;SDS011;13578;53.450;15.496;2023-04-03T17:27:12;5.82;;;4.10;;
25721;SDS011;13578;53.450;15.496;2023-04-03T17:30:13;18.42;;;5.75;;
25721;SDS011;13578;53.450;15.496;2023-04-03T17:33:13;8.68;;;3.63;;
25721;SDS011;13578;53.450;15.496;2023-04-03T17:36:14;7.05;;;4.82;;
25721;SDS011;13578;53.450;15.496;2023-04-03T17:39:15;6.97;;;3.78;;
25721;SDS011;13578;53.450;15.496;2023-04-03T17:42:16;4.72;;;3.67;;
25721;SDS011;13578;53.450;15.496;2023-04-03T17:45:16;9.93;;;3.92;;
25721;SDS011;13578;53.450;15.496;2023-04-03T17:48:17;4.63;;;4.22;;
25721;SDS011;13578;53.450;15.496;2023-04-03T17:51:20;4.35;;;3.42;;
25721;SDS011;13578;53.450;15.496;2023-04-03T17:54:22;6.57;;;3.67;;
25721;SDS011;13578;53.450;15.496;2023-04-03T17:57:23;6.13;;;3.55;;
25721;SDS011;13578;53.450;15.496;2023-04-03T18:00:24;4.93;;;4.30;;
25721;SDS011;13578;53.450;15.496;2023-04-03T18:03:24;6.38;;;3.63;;
25721;SDS011;13578;53.450;15.496;2023-04-03T18:06:26;6.40;;;4.35;;
25721;SDS011;13578;53.450;15.496;2023-04-03T18:09:30;4.85;;;3.95;;
25721;SDS011;13578;53.450;15.496;2023-04-03T18:12:32;6.95;;;4.13;;
25721;SDS011;13578;53.450;15.496;2023-04-03T18:15:34;5.15;;;4.22;;
25721;SDS011;13578;53.450;15.496;2023-04-03T18:18:36;6.57;;;4.28;;
25721;SDS011;13578;53.450;15.496;2023-04-03T18:21:37;5.15;;;4.03;;
25721;SDS011;13578;53.450;15.496;2023-04-03T18:24:38;5.28;;;4.68;;
25721;SDS011;13578;53.450;15.496;2023-04-03T18:27:42;6.85;;;4.53;;
25721;SDS011;13578;53.450;15.496;2023-04-03T18:30:44;6.78;;;4.07;;
25721;SDS011;13578;53.450;15.496;2023-04-03T18:33:44;10.95;;;3.95;;
25721;SDS011;13578;53.450;15.496;2023-04-03T18:36:45;8.75;;;3.80;;
25721;SDS011;13578;53.450;15.496;2023-04-03T18:39:46;5.60;;;4.25;;
25721;SDS011;13578;53.450;15.496;2023-04-03T18:42:47;4.15;;;3.85;;
25721;SDS011;13578;53.450;15.496;2023-04-03T18:45:48;4.93;;;3.95;;
25721;SDS011;13578;53.450;15.496;2023-04-03T18:48:52;5.00;;;4.18;;
25721;SDS011;13578;53.450;15.496;2023-04-03T18:51:53;10.68;;;5.00;;
25721;SDS011;13578;53.450;15.496;2023-04-03T18:54:54;5.22;;;4.55;;
25721;SDS011;13578;53.450;15.496;2023-04-03T18:57:55;4.88;;;3.83;;
25721;SDS011;13578;53.450;15.496;2023-04-03T19:00:57;4.70;;;4.30;;
25721;SDS011;13578;53.450;15.496;2023-04-03T19:03:59;4.10;;;3.80;;
25721;SDS011;13578;53.450;15.496;2023-04-03T19:07:00;5.43;;;4.65;;
25721;SDS011;13578;53.450;15.496;2023-04-03T19:10:04;5.00;;;4.57;;
25721;SDS011;13578;53.450;15.496;2023-04-03T19:13:06;5.40;;;4.43;;
25721;SDS011;13578;53.450;15.496;2023-04-03T19:16:06;5.68;;;4.85;;
25721;SDS011;13578;53.450;15.496;2023-04-03T19:19:07;9.43;;;4.90;;
25721;SDS011;13578;53.450;15.496;2023-04-03T19:22:07;5.22;;;4.20;;
25721;SDS011;13578;53.450;15.496;2023-04-03T19:25:09;9.98;;;4.05;;
25721;SDS011;13578;53.450;15.496;2023-04-03T19:28:10;6.10;;;5.00;;
25721;SDS011;13578;53.450;15.496;2023-04-03T19:31:14;10.00;;;5.10;;
25721;SDS011;13578;53.450;15.496;2023-04-03T19:34:16;7.00;;;4.55;;